createdAt,value
2022-10-23T00:01:37.238Z,76.69
2022-10-23T00:04:11.570Z,68.03
2022-10-23T00:06:38.196Z,78.17
2022-10-23T00:09:06.767Z,77.55
2022-10-23T00:11:34.821Z,76.66
2022-10-23T00:14:04.527Z,76.57
2022-10-23T00:16:31.284Z,76.49
2022-10-23T00:18:57.755Z,76.58
2022-10-23T00:21:24.841Z,76.32
2022-10-23T00:23:51.712Z,75.89
2022-10-23T00:26:18.332Z,74.46
2022-10-23T00:28:48.135Z,82.93
2022-10-23T00:31:15.577Z,80.05
2022-10-23T00:33:43.436Z,77.40
2022-10-23T00:36:12.752Z,76.72
2022-10-23T00:38:40.305Z,76.66
2022-10-23T00:41:09.621Z,77.07
2022-10-23T00:44:08.988Z,76.32
2022-10-23T00:46:37.276Z,76.12
2022-10-23T00:49:05.860Z,76.01
2022-10-23T00:51:43.663Z,76.51
2022-10-23T00:54:23.417Z,76.48
2022-10-23T00:56:52.616Z,76.41
2022-10-23T00:59:19.075Z,76.55
2022-10-23T01:01:45.817Z,75.96
2022-10-23T01:04:12.504Z,66.14
2022-10-23T01:06:54.024Z,76.24
2022-10-23T01:09:36.960Z,75.02
2022-10-23T01:12:14.960Z,78.69
2022-10-23T01:15:05.254Z,79.22
2022-10-23T01:17:51.301Z,77.04
2022-10-23T01:20:32.286Z,76.36
2022-10-23T01:23:16.791Z,76.55
2022-10-23T01:26:11.275Z,76.24
2022-10-23T01:28:52.053Z,76.19
2022-10-23T01:32:04.795Z,76.36
2022-10-23T01:34:56.403Z,75.65
2022-10-23T01:37:44.681Z,76.25
2022-10-23T01:40:23.526Z,75.58
2022-10-23T01:42:54.930Z,76.81
2022-10-23T01:45:32.773Z,75.15
2022-10-23T01:48:01.561Z,76.14
2022-10-23T01:50:30.228Z,76.20
2022-10-23T01:52:57.147Z,75.83
2022-10-23T01:55:24.868Z,76.66
2022-10-23T01:57:53.435Z,76.16
2022-10-23T02:00:20.711Z,77.92
2022-10-23T02:02:48.972Z,76.36
2022-10-23T02:05:25.769Z,76.61
2022-10-23T02:07:52.946Z,76.21
2022-10-23T02:10:20.483Z,68.08
2022-10-23T02:12:49.676Z,78.46
2022-10-23T02:15:40.569Z,72.31
2022-10-23T02:18:27.674Z,79.18
2022-10-23T02:21:18.083Z,76.82
2022-10-23T02:23:56.171Z,76.42
2022-10-23T02:26:36.695Z,75.75
2022-10-23T02:29:10.945Z,75.94
2022-10-23T02:31:37.569Z,74.62
2022-10-23T02:34:04.232Z,76.36
2022-10-23T02:36:30.725Z,75.78
2022-10-23T02:38:57.424Z,64.29
2022-10-23T02:41:40.351Z,80.11
2022-10-23T02:44:13.709Z,77.54
2022-10-23T02:46:43.083Z,78.02
2022-10-23T02:49:31.529Z,76.39
2022-10-23T02:52:23.304Z,74.15
2022-10-23T02:54:59.179Z,76.40
2022-10-23T02:58:08.144Z,79.67
2022-10-23T03:00:37.918Z,77.13
2022-10-23T03:03:13.503Z,68.72
2022-10-23T03:05:41.727Z,78.76
2022-10-23T03:08:09.689Z,77.01
2022-10-23T03:10:36.195Z,76.21
2022-10-23T03:13:02.671Z,76.31
2022-10-23T03:15:29.140Z,76.10
2022-10-23T03:17:55.603Z,76.19
2022-10-23T03:20:22.372Z,75.61
2022-10-23T03:22:48.781Z,76.41
2022-10-23T03:25:15.273Z,75.75
2022-10-23T03:27:41.700Z,79.81
2022-10-23T03:30:09.095Z,77.02
2022-10-23T03:32:35.572Z,76.81
2022-10-23T03:35:02.003Z,76.58
2022-10-23T03:37:28.422Z,76.16
2022-10-23T03:39:54.966Z,75.93
2022-10-23T03:42:21.520Z,76.22
2022-10-23T03:44:47.953Z,76.14
2022-10-23T03:47:14.412Z,75.89
2022-10-23T03:49:40.918Z,83.84
2022-10-23T03:52:08.524Z,78.48
2022-10-23T03:54:35.374Z,68.99
2022-10-23T03:57:02.292Z,77.28
2022-10-23T03:59:29.230Z,76.75
2022-10-23T04:01:55.755Z,77.01
2022-10-23T04:04:22.294Z,76.95
2022-10-23T04:06:48.756Z,76.54
2022-10-23T04:09:15.682Z,78.67
2022-10-23T04:11:42.085Z,87.18
2022-10-23T04:14:11.955Z,78.83
2022-10-23T04:16:38.516Z,68.78
2022-10-23T04:19:04.958Z,79.99
2022-10-23T04:21:31.381Z,81.11
2022-10-23T04:23:57.829Z,78.43
2022-10-23T04:26:24.293Z,77.37
2022-10-23T04:28:50.664Z,77.69
2022-10-23T04:31:17.360Z,70.79
2022-10-23T04:33:43.902Z,79.83
2022-10-23T04:36:10.495Z,77.81
2022-10-23T04:38:36.916Z,77.49
2022-10-23T04:41:03.733Z,76.40
2022-10-23T04:43:30.173Z,77.40
2022-10-23T04:45:56.543Z,73.57
2022-10-23T04:48:25.556Z,81.02
2022-10-23T04:50:59.705Z,77.83
2022-10-23T04:53:27.270Z,76.06
2022-10-23T04:55:56.921Z,77.68
2022-10-23T04:58:23.539Z,80.72
2022-10-23T05:00:50.500Z,78.01
2022-10-23T05:03:18.246Z,77.09
2022-10-23T05:05:45.606Z,77.34
2022-10-23T05:08:15.572Z,74.30
2022-10-23T05:10:44.679Z,78.77
2022-10-23T05:13:11.122Z,77.81
2022-10-23T05:15:37.611Z,77.26
2022-10-23T05:18:28.382Z,70.57
2022-10-23T05:21:01.223Z,81.33
2022-10-23T05:23:30.561Z,78.53
2022-10-23T05:25:57.006Z,77.37
2022-10-23T05:28:23.419Z,77.59
2022-10-23T05:30:50.297Z,77.28
2022-10-23T05:33:16.740Z,73.82
2022-10-23T05:35:44.606Z,79.19
2022-10-23T05:38:12.346Z,77.67
2022-10-23T05:43:10.170Z,78.96
2022-10-23T05:45:36.615Z,79.61
2022-10-23T05:48:11.079Z,77.90
2022-10-23T05:50:48.821Z,74.71
2022-10-23T05:53:15.247Z,80.01
2022-10-23T05:55:41.811Z,81.64
2022-10-23T05:58:08.237Z,81.30
2022-10-23T06:00:34.679Z,79.43
2022-10-23T06:03:02.110Z,73.10
2022-10-23T06:05:28.679Z,72.22
2022-10-23T06:08:01.361Z,80.07
2022-10-23T06:10:28.166Z,77.79
2022-10-23T06:12:54.587Z,76.49
2022-10-23T06:15:21.021Z,78.24
2022-10-23T06:17:47.404Z,76.85
2022-10-23T06:20:13.912Z,77.19
2022-10-23T06:22:40.583Z,77.16
2022-10-23T06:25:07.982Z,77.36
2022-10-23T06:27:34.411Z,74.12
2022-10-23T06:30:00.895Z,81.79
2022-10-23T06:32:30.926Z,79.49
2022-10-23T06:34:57.358Z,78.14
2022-10-23T06:37:23.749Z,75.34
2022-10-23T06:39:50.219Z,78.92
2022-10-23T06:42:16.749Z,77.92
2022-10-23T06:44:43.169Z,77.17
2022-10-23T06:47:14.334Z,77.08
2022-10-23T06:49:40.880Z,77.26
2022-10-23T06:52:14.297Z,77.55
2022-10-23T06:54:49.647Z,73.77
2022-10-23T06:57:16.065Z,78.53
2022-10-23T06:59:42.492Z,77.67
2022-10-23T07:02:09.475Z,75.00
2022-10-23T07:04:35.977Z,79.43
2022-10-23T07:07:02.359Z,77.76
2022-10-23T07:09:28.994Z,77.70
2022-10-23T07:11:55.422Z,78.72
2022-10-23T07:14:21.827Z,77.89
2022-10-23T07:16:48.209Z,80.56
2022-10-23T07:19:14.669Z,78.18
2022-10-23T07:21:41.090Z,76.95
2022-10-23T07:24:07.740Z,80.37
2022-10-23T07:26:34.133Z,82.73
2022-10-23T07:29:00.578Z,81.88
2022-10-23T07:31:28.429Z,80.53
2022-10-23T07:33:55.113Z,78.54
2022-10-23T07:36:21.756Z,77.36
2022-10-23T07:38:48.131Z,78.13
2022-10-23T07:41:15.441Z,78.22
2022-10-23T07:43:41.891Z,84.82
2022-10-23T07:46:09.845Z,78.16
2022-10-23T07:48:37.254Z,80.90
2022-10-23T07:51:11.435Z,86.26
2022-10-23T07:53:38.989Z,83.83
2022-10-23T07:56:21.327Z,76.91
2022-10-23T07:58:47.797Z,78.13
2022-10-23T08:01:21.031Z,84.50
2022-10-23T08:03:47.578Z,76.20
2022-10-23T08:06:14.342Z,77.28
2022-10-23T08:08:40.837Z,77.09
2022-10-23T08:11:07.689Z,77.02
2022-10-23T08:13:34.163Z,80.34
2022-10-23T08:16:00.639Z,74.55
2022-10-23T08:18:27.053Z,76.76
2022-10-23T08:20:53.572Z,81.39
2022-10-23T08:23:20.233Z,78.32
2022-10-23T08:25:47.161Z,75.37
2022-10-23T08:28:13.641Z,75.03
2022-10-23T08:30:40.140Z,73.54
2022-10-23T08:33:07.080Z,75.89
2022-10-23T08:35:37.845Z,75.28
2022-10-23T08:38:05.548Z,79.74
2022-10-23T08:40:32.512Z,77.44
2022-10-23T08:43:19.124Z,78.38
2022-10-23T08:45:55.242Z,73.15
2022-10-23T08:48:30.491Z,72.16
2022-10-23T08:51:05.679Z,73.33
2022-10-23T08:53:56.137Z,81.91
2022-10-23T08:56:37.384Z,66.13
2022-10-23T08:59:22.609Z,63.16
2022-10-23T09:02:02.364Z,66.14
2022-10-23T09:04:29.396Z,60.93
2022-10-23T09:07:29.547Z,62.63
2022-10-23T09:10:08.023Z,69.01
2022-10-23T09:12:34.449Z,67.58
2022-10-23T09:15:18.483Z,61.61
2022-10-23T09:17:47.133Z,60.42
2022-10-23T09:20:18.673Z,52.11
2022-10-23T09:22:46.660Z,55.35
2022-10-23T09:25:29.408Z,60.87
2022-10-23T09:28:01.472Z,68.77
2022-10-23T09:30:40.585Z,53.65
2022-10-23T09:33:18.217Z,70.93
2022-10-23T09:36:01.342Z,54.89
2022-10-23T09:38:30.861Z,50.81
2022-10-23T09:41:06.061Z,59.96
2022-10-23T09:43:32.523Z,55.29
2022-10-23T09:46:02.709Z,60.36
2022-10-23T09:48:29.651Z,57.61
2022-10-23T09:50:58.241Z,69.98
2022-10-23T09:53:31.604Z,54.54
2022-10-23T09:56:02.755Z,59.56
2022-10-23T09:58:36.240Z,49.73
2022-10-23T10:01:04.328Z,52.26
2022-10-23T10:03:30.941Z,49.91
2022-10-23T10:06:00.799Z,50.29
2022-10-23T10:08:44.483Z,65.57
2022-10-23T10:11:17.990Z,67.77
2022-10-23T10:14:18.116Z,69.68
2022-10-23T10:16:51.820Z,69.86
2022-10-23T10:19:48.619Z,62.62
2022-10-23T10:22:42.620Z,71.13
2022-10-23T10:25:19.806Z,57.42
2022-10-23T10:28:05.828Z,52.45
2022-10-23T10:30:52.339Z,64.91
2022-10-23T10:33:31.038Z,68.70
2022-10-23T10:36:12.860Z,64.63
2022-10-23T10:38:46.385Z,57.53
2022-10-23T10:41:21.745Z,59.64
2022-10-23T10:44:12.791Z,54.03
2022-10-23T10:46:56.310Z,58.48
2022-10-23T10:49:45.850Z,62.58
2022-10-23T10:52:20.587Z,57.53
2022-10-23T10:54:53.077Z,64.35
2022-10-23T10:57:37.369Z,66.64
2022-10-23T11:00:13.663Z,64.95
2022-10-23T11:02:47.757Z,61.90
2022-10-23T11:05:37.235Z,57.97
2022-10-23T11:08:22.277Z,68.58
2022-10-23T11:10:55.559Z,69.65
2022-10-23T11:13:35.771Z,69.81
2022-10-23T11:16:09.599Z,65.38
2022-10-23T11:18:37.212Z,54.40
2022-10-23T11:21:30.130Z,68.91
2022-10-23T11:24:31.651Z,65.58
2022-10-23T11:27:30.180Z,63.12
2022-10-23T11:30:17.916Z,70.72
2022-10-23T11:32:44.280Z,62.79
2022-10-23T11:35:30.699Z,59.33
2022-10-23T11:38:23.545Z,68.42
2022-10-23T11:40:54.812Z,54.69
2022-10-23T11:43:56.932Z,64.09
2022-10-23T11:46:23.304Z,61.22
2022-10-23T11:48:51.079Z,55.17
2022-10-23T11:51:32.981Z,39.76
2022-10-23T11:54:07.868Z,44.19
2022-10-23T11:56:34.505Z,56.04
2022-10-23T11:59:21.602Z,51.17
2022-10-23T12:01:51.242Z,56.71
2022-10-23T12:04:28.013Z,56.21
2022-10-23T12:07:02.487Z,48.91
2022-10-23T12:09:51.948Z,51.49
2022-10-23T12:12:28.229Z,46.13
2022-10-23T12:15:08.980Z,49.05
2022-10-23T12:17:37.969Z,61.81
2022-10-23T12:20:21.354Z,48.89
2022-10-23T12:22:47.851Z,49.03
2022-10-23T12:25:31.695Z,66.53
2022-10-23T12:28:05.603Z,52.37
2022-10-23T12:30:50.310Z,67.61
2022-10-23T12:33:29.367Z,59.11
2022-10-23T12:36:15.425Z,63.22
2022-10-23T12:38:46.705Z,67.53
2022-10-23T12:41:34.707Z,68.36
2022-10-23T12:44:03.608Z,64.70
2022-10-23T12:46:36.767Z,63.16
2022-10-23T12:49:12.720Z,61.42
2022-10-23T12:51:39.201Z,42.89
2022-10-23T12:54:15.928Z,58.09
2022-10-23T12:56:44.163Z,54.54
2022-10-23T12:59:16.438Z,46.20
2022-10-23T13:01:43.554Z,48.05
2022-10-23T13:04:10.336Z,64.69
2022-10-23T13:06:39.289Z,61.89
2022-10-23T13:09:15.220Z,66.13
2022-10-23T13:11:42.517Z,51.71
2022-10-23T13:14:13.638Z,60.86
2022-10-23T13:16:40.141Z,49.01
2022-10-23T13:19:06.611Z,67.79
2022-10-23T13:21:33.127Z,52.91
2022-10-23T13:23:59.571Z,65.65
2022-10-23T13:26:33.592Z,62.63
2022-10-23T13:29:08.713Z,69.60
2022-10-23T13:31:36.515Z,55.35
2022-10-23T13:34:05.119Z,46.81
2022-10-23T13:36:36.027Z,63.84
2022-10-23T13:39:23.958Z,68.11
2022-10-23T13:41:50.400Z,67.67
2022-10-23T13:44:19.968Z,69.86
2022-10-23T13:46:48.289Z,70.41
2022-10-23T13:49:15.702Z,70.96
2022-10-23T13:51:47.397Z,66.88
2022-10-23T13:54:17.122Z,53.76
2022-10-23T13:56:43.690Z,61.33
2022-10-23T13:59:11.457Z,65.87
2022-10-23T14:01:38.571Z,65.16
2022-10-23T14:04:05.637Z,70.24
2022-10-23T14:06:32.682Z,61.70
2022-10-23T14:08:59.237Z,67.72
2022-10-23T14:11:26.071Z,65.49
2022-10-23T14:13:52.748Z,52.34
2022-10-23T14:16:21.343Z,60.21
2022-10-23T14:18:47.932Z,65.48
2022-10-23T14:21:17.459Z,53.74
2022-10-23T14:23:43.874Z,61.81
2022-10-23T14:26:12.880Z,57.44
2022-10-23T14:28:39.730Z,68.68
2022-10-23T14:31:09.125Z,69.41
2022-10-23T14:33:35.707Z,68.10
2022-10-23T14:36:03.286Z,69.20
2022-10-23T14:38:30.039Z,61.68
2022-10-23T14:40:56.456Z,51.89
2022-10-23T14:43:23.935Z,54.80
2022-10-23T14:45:50.429Z,61.79
2022-10-23T14:48:17.631Z,66.45
2022-10-23T14:50:49.266Z,60.21
2022-10-23T14:53:16.213Z,51.59
2022-10-23T14:55:42.819Z,59.94
2022-10-23T14:58:09.728Z,67.61
2022-10-23T15:00:36.173Z,60.59
2022-10-23T15:03:02.601Z,50.85
2022-10-23T15:05:29.095Z,54.62
2022-10-23T15:07:56.216Z,46.72
2022-10-23T15:10:22.670Z,60.26
2022-10-23T15:12:49.219Z,51.32
2022-10-23T15:15:15.671Z,49.21
2022-10-23T15:17:42.357Z,61.78
2022-10-23T15:20:09.326Z,51.34
2022-10-23T15:22:35.838Z,61.85
2022-10-23T15:25:02.353Z,66.85
2022-10-23T15:27:28.901Z,55.36
2022-10-23T15:29:55.381Z,53.16
2022-10-23T15:32:21.755Z,56.73
2022-10-23T15:34:49.697Z,66.14
2022-10-23T15:37:16.395Z,68.42
2022-10-23T15:39:43.092Z,59.48
2022-10-23T15:42:09.914Z,57.58
2022-10-23T15:44:36.542Z,67.03
2022-10-23T15:47:03.028Z,56.09
2022-10-23T15:49:29.956Z,59.80
2022-10-23T15:51:57.287Z,65.05
2022-10-23T15:54:24.616Z,69.91
2022-10-23T15:56:53.905Z,53.12
2022-10-23T15:59:23.636Z,66.80
2022-10-23T16:01:50.934Z,62.16
2022-10-23T16:04:18.173Z,55.01
2022-10-23T16:06:44.978Z,51.93
2022-10-23T16:09:12.124Z,64.51
2022-10-23T16:11:39.678Z,57.39
2022-10-23T16:14:06.881Z,65.15
2022-10-23T16:16:34.320Z,58.80
2022-10-23T16:19:02.722Z,64.73
2022-10-23T16:21:35.344Z,52.80
2022-10-23T16:24:03.666Z,55.49
2022-10-23T16:26:30.510Z,67.43
2022-10-23T16:29:00.344Z,61.65
2022-10-23T16:31:27.781Z,59.46
2022-10-23T16:33:54.638Z,65.75
2022-10-23T16:36:21.244Z,58.80
2022-10-23T16:38:47.651Z,69.08
2022-10-23T16:41:14.162Z,63.63
2022-10-23T16:43:40.610Z,69.55
2022-10-23T16:46:12.418Z,70.49
2022-10-23T16:48:39.921Z,60.29
2022-10-23T16:51:15.168Z,67.88
2022-10-23T16:53:43.255Z,70.36
2022-10-23T16:56:11.837Z,68.68
2022-10-23T16:58:40.842Z,69.88
2022-10-23T17:01:13.696Z,70.22
2022-10-23T17:03:42.928Z,70.81
2022-10-23T17:06:12.080Z,69.98
2022-10-23T17:08:39.649Z,62.75
2022-10-23T17:11:18.527Z,59.84
2022-10-23T17:13:47.620Z,69.06
2022-10-23T17:16:19.931Z,69.78
2022-10-23T17:18:46.833Z,69.98
2022-10-23T17:21:15.075Z,70.33
2022-10-23T17:23:42.703Z,70.87
2022-10-23T17:26:11.484Z,65.69
2022-10-23T17:28:40.494Z,62.56
2022-10-23T17:31:17.916Z,68.18
2022-10-23T17:33:45.172Z,54.29
2022-10-23T17:36:13.534Z,61.89
2022-10-23T17:38:43.387Z,61.39
2022-10-23T17:41:11.540Z,63.20
2022-10-23T17:43:38.239Z,56.86
2022-10-23T17:46:06.360Z,67.97
2022-10-23T17:48:32.800Z,65.22
2022-10-23T17:51:05.275Z,68.44
2022-10-23T17:53:32.269Z,65.10
2022-10-23T17:56:02.223Z,60.42
2022-10-23T17:58:28.887Z,53.96
2022-10-23T18:00:55.399Z,61.97
2022-10-23T18:03:21.903Z,64.19
2022-10-23T18:05:48.317Z,68.19
2022-10-23T18:08:14.812Z,59.11
2022-10-23T18:10:41.236Z,67.31
2022-10-23T18:13:07.647Z,63.31
2022-10-23T18:15:35.777Z,60.68
2022-10-23T18:18:07.715Z,57.36
2022-10-23T18:20:39.855Z,61.47
2022-10-23T18:23:07.119Z,62.49
2022-10-23T18:25:34.722Z,64.76
2022-10-23T18:28:02.532Z,58.49
2022-10-23T18:30:29.402Z,55.80
2022-10-23T18:32:58.051Z,58.27
2022-10-23T18:35:25.189Z,59.99
2022-10-23T18:37:51.772Z,62.99
2022-10-23T18:40:18.588Z,59.94
2022-10-23T18:42:45.313Z,61.75
2022-10-23T18:45:13.506Z,69.09
2022-10-23T18:47:40.000Z,59.74
2022-10-23T18:50:07.057Z,60.25
2022-10-23T18:52:33.455Z,61.36
2022-10-23T18:55:00.274Z,61.00
2022-10-23T18:57:26.706Z,60.03
2022-10-23T18:59:56.369Z,60.90
2022-10-23T19:02:22.937Z,60.42
2022-10-23T19:04:49.451Z,59.08
2022-10-23T19:07:16.288Z,64.22
2022-10-23T19:09:42.790Z,65.29
2022-10-23T19:12:10.378Z,68.25
2022-10-23T19:14:36.912Z,70.22
2022-10-23T19:17:08.183Z,70.76
2022-10-23T19:19:42.153Z,58.59
2022-10-23T19:22:11.278Z,64.08
2022-10-23T19:24:51.028Z,61.86
2022-10-23T19:27:19.293Z,68.21
2022-10-23T19:29:47.979Z,59.99
2022-10-23T19:32:14.900Z,61.88
2022-10-23T19:34:41.432Z,65.66
2022-10-23T19:37:07.994Z,68.19
2022-10-23T19:39:34.509Z,66.11
2022-10-23T19:42:00.979Z,60.65
2022-10-23T19:44:28.535Z,70.44
2022-10-23T19:46:54.999Z,62.82
2022-10-23T19:49:23.739Z,68.94
2022-10-23T19:51:51.499Z,60.54
2022-10-23T19:54:20.267Z,69.19
2022-10-23T19:56:47.535Z,59.25
2022-10-23T19:59:14.581Z,63.45
2022-10-23T20:01:45.041Z,68.13
2022-10-23T20:04:15.516Z,57.46
2022-10-23T20:06:41.981Z,61.72
2022-10-23T20:09:09.809Z,59.23
2022-10-23T20:11:38.758Z,61.20
2022-10-23T20:14:05.265Z,68.19
2022-10-23T20:16:34.920Z,69.55
2022-10-23T20:19:04.238Z,69.99
2022-10-23T20:21:30.706Z,62.10
2022-10-23T20:23:58.622Z,67.01
2022-10-23T20:26:25.913Z,70.08
2022-10-23T20:28:54.876Z,70.34
2022-10-23T20:31:23.504Z,65.43
2022-10-23T20:33:50.814Z,64.06
2022-10-23T20:36:29.574Z,62.48
2022-10-23T20:38:57.639Z,67.44
2022-10-23T20:41:26.973Z,65.91
2022-10-23T20:43:55.430Z,63.12
2022-10-23T20:46:22.882Z,69.76
2022-10-23T20:48:49.870Z,70.36
2022-10-23T20:51:19.363Z,70.32
2022-10-23T20:53:46.241Z,67.04
2022-10-23T20:56:14.354Z,66.92
2022-10-23T20:58:40.844Z,70.23
2022-10-23T21:01:09.938Z,69.79
2022-10-23T21:03:37.404Z,69.79
2022-10-23T21:06:08.857Z,67.81
2022-10-23T21:08:35.914Z,69.10
2022-10-23T21:11:02.366Z,71.62
2022-10-23T21:13:29.041Z,71.70
2022-10-23T21:15:56.135Z,71.25
2022-10-23T21:18:34.061Z,67.29
2022-10-23T21:21:11.735Z,71.21
2022-10-23T21:23:38.395Z,71.16
2022-10-23T21:26:07.498Z,69.63
2022-10-23T21:28:34.710Z,69.51
2022-10-23T21:31:06.401Z,70.92
2022-10-23T21:33:33.822Z,67.54
2022-10-23T21:36:11.843Z,69.69
2022-10-23T21:38:39.786Z,71.94
2022-10-23T21:41:11.540Z,71.71
2022-10-23T21:43:38.072Z,70.83
2022-10-23T21:46:05.893Z,71.56
2022-10-23T21:48:33.175Z,71.75
2022-10-23T21:51:00.235Z,70.68
2022-10-23T21:53:27.713Z,70.68
2022-10-23T21:55:56.143Z,66.03
2022-10-23T21:58:22.547Z,60.08
2022-10-23T22:00:48.980Z,61.41
2022-10-23T22:03:15.420Z,61.12
2022-10-23T22:05:41.831Z,69.19
2022-10-23T22:08:08.276Z,70.33
2022-10-23T22:10:35.149Z,70.32
2022-10-23T22:13:01.528Z,65.90
2022-10-23T22:15:28.023Z,70.04
2022-10-23T22:17:54.484Z,62.16
2022-10-23T22:20:21.162Z,64.09
2022-10-23T22:22:47.629Z,64.03
2022-10-23T22:25:14.055Z,64.12
2022-10-23T22:27:40.442Z,63.71
2022-10-23T22:30:07.271Z,63.43
2022-10-23T22:32:35.464Z,64.60
2022-10-23T22:35:01.843Z,65.50
2022-10-23T22:37:28.284Z,65.12
2022-10-23T22:39:54.754Z,61.97
2022-10-23T22:42:21.136Z,64.55
2022-10-23T22:44:47.587Z,64.87
2022-10-23T22:47:13.999Z,63.47
2022-10-23T22:49:40.438Z,63.32
2022-10-23T22:52:06.865Z,61.79
2022-10-23T22:54:33.319Z,63.36
2022-10-23T22:56:59.768Z,62.51
2022-10-23T22:59:26.441Z,66.11
2022-10-23T23:01:52.906Z,64.59
2022-10-23T23:04:37.305Z,60.85
2022-10-23T23:07:06.728Z,63.61
2022-10-23T23:09:36.288Z,65.53
2022-10-23T23:12:02.684Z,64.49
2022-10-23T23:14:29.126Z,62.99
2022-10-23T23:16:55.580Z,67.64
2022-10-23T23:19:22.943Z,67.82
2022-10-23T23:21:49.631Z,64.97
2022-10-23T23:24:16.025Z,66.03
2022-10-23T23:26:42.467Z,68.56
2022-10-23T23:29:08.893Z,67.54
2022-10-23T23:31:35.352Z,69.76
2022-10-23T23:34:01.886Z,65.70
2022-10-23T23:36:28.920Z,62.97
2022-10-23T23:38:57.246Z,64.22
2022-10-23T23:41:25.302Z,66.04
2022-10-23T23:43:54.367Z,70.42
2022-10-23T23:46:20.928Z,64.62
2022-10-23T23:48:49.290Z,67.89
2022-10-23T23:51:18.428Z,69.42
2022-10-23T23:53:44.909Z,69.92
2022-10-23T23:56:11.368Z,70.37
2022-10-23T23:58:37.881Z,69.71
